createdAt,value
2017-07-25T00:00:36.450Z,4.67
2017-07-25T00:03:04.750Z,4.30
2017-07-25T00:05:32.317Z,5.40
2017-07-25T00:07:59.837Z,4.50
2017-07-25T00:10:28.133Z,5.20
2017-07-25T00:12:55.666Z,5.10
2017-07-25T00:15:23.385Z,4.63
2017-07-25T00:17:50.938Z,5.40
2017-07-25T00:20:18.469Z,4.77
2017-07-25T00:22:46.745Z,4.90
2017-07-25T00:25:15.025Z,5.33
2017-07-25T00:27:42.564Z,6.37
2017-07-25T00:30:10.853Z,5.60
2017-07-25T00:32:39.133Z,5.40
2017-07-25T00:35:07.439Z,5.10
2017-07-25T00:37:35.003Z,5.10
2017-07-25T00:40:02.665Z,5.50
2017-07-25T00:42:30.222Z,5.40
2017-07-25T00:44:57.890Z,5.70
2017-07-25T00:47:25.648Z,5.10
2017-07-25T00:49:53.186Z,5.93
2017-07-25T00:52:20.770Z,4.90
2017-07-25T00:54:48.294Z,5.70
2017-07-25T00:57:16.595Z,4.43
2017-07-25T00:59:44.169Z,4.90
2017-07-25T01:02:11.689Z,5.57
2017-07-25T01:04:40.005Z,4.93
2017-07-25T01:07:07.537Z,5.37
2017-07-25T01:09:35.054Z,4.63
2017-07-25T01:12:02.604Z,4.63
2017-07-25T01:14:30.117Z,6.17
2017-07-25T01:16:57.633Z,4.73
2017-07-25T01:19:25.169Z,3.97
2017-07-25T01:21:52.681Z,4.43
2017-07-25T01:24:20.969Z,4.30
2017-07-25T01:26:48.504Z,4.90
2017-07-25T01:29:16.036Z,5.60
2017-07-25T01:31:43.553Z,4.33
2017-07-25T01:34:11.130Z,4.47
2017-07-25T01:36:38.690Z,4.57
2017-07-25T01:39:06.225Z,3.87
2017-07-25T01:41:33.912Z,4.77
2017-07-25T01:44:01.427Z,4.73
2017-07-25T01:46:29.770Z,4.30
2017-07-25T01:48:57.323Z,4.27
2017-07-25T01:51:24.842Z,4.50
2017-07-25T01:53:52.392Z,4.30
2017-07-25T01:56:20.807Z,4.60
2017-07-25T01:58:48.469Z,4.80
2017-07-25T02:01:16.008Z,4.77
2017-07-25T02:03:43.549Z,4.80
2017-07-25T02:06:11.830Z,4.60
2017-07-25T02:08:40.119Z,5.30
2017-07-25T02:11:07.709Z,4.80
2017-07-25T02:13:35.266Z,4.47
2017-07-25T02:16:02.791Z,4.33
2017-07-25T02:18:31.201Z,4.43
2017-07-25T02:20:58.761Z,3.30
2017-07-25T02:23:26.281Z,4.10
2017-07-25T02:25:54.587Z,4.50
2017-07-25T02:28:22.157Z,3.63
2017-07-25T02:30:49.681Z,3.30
2017-07-25T02:33:18.099Z,3.43
2017-07-25T02:35:45.621Z,3.90
2017-07-25T02:38:13.945Z,3.90
2017-07-25T02:40:41.595Z,3.77
2017-07-25T02:43:09.153Z,3.57
2017-07-25T02:45:36.673Z,4.03
2017-07-25T02:48:05.309Z,4.50
2017-07-25T02:50:32.864Z,3.60
2017-07-25T02:53:00.385Z,4.03
2017-07-25T02:55:28.696Z,3.53
2017-07-25T02:57:56.216Z,3.70
2017-07-25T03:00:24.500Z,5.00
2017-07-25T03:02:52.914Z,4.77
2017-07-25T03:05:20.470Z,4.40
2017-07-25T03:07:47.985Z,4.10
2017-07-25T03:10:16.286Z,4.77
2017-07-25T03:12:43.875Z,4.97
2017-07-25T03:15:11.903Z,4.07
2017-07-25T03:17:40.222Z,4.27
2017-07-25T03:20:07.752Z,4.97
2017-07-25T03:22:35.274Z,7.10
2017-07-25T03:25:02.813Z,5.17
2017-07-25T03:27:30.467Z,6.00
2017-07-25T03:29:58.021Z,4.80
2017-07-25T03:32:25.581Z,5.60
2017-07-25T03:34:53.137Z,5.43
2017-07-25T03:37:20.649Z,5.90
2017-07-25T03:39:48.251Z,4.97
2017-07-25T03:42:15.785Z,5.17
2017-07-25T03:44:44.091Z,4.10
2017-07-25T03:47:11.649Z,5.80
2017-07-25T03:49:39.172Z,4.47
2017-07-25T03:52:07.489Z,5.50
2017-07-25T03:54:35.049Z,5.00
2017-07-25T03:57:02.708Z,5.00
2017-07-25T03:59:30.271Z,5.80
2017-07-25T04:01:57.812Z,5.67
2017-07-25T04:04:25.395Z,5.63
2017-07-25T04:06:52.948Z,5.27
2017-07-25T04:09:20.483Z,6.53
2017-07-25T04:11:48.173Z,6.00
2017-07-25T04:14:15.736Z,7.67
2017-07-25T04:16:43.270Z,5.37
2017-07-25T04:19:10.854Z,6.27
2017-07-25T04:21:38.410Z,5.73
2017-07-25T04:24:05.969Z,6.53
2017-07-25T04:26:33.489Z,6.13
2017-07-25T04:29:01.806Z,6.50
2017-07-25T04:31:29.345Z,6.87
2017-07-25T04:33:57.222Z,6.50
2017-07-25T04:36:24.747Z,6.70
2017-07-25T04:38:52.353Z,6.00
2017-07-25T04:41:19.885Z,5.50
2017-07-25T04:43:47.481Z,5.80
2017-07-25T04:46:15.017Z,6.77
2017-07-25T04:48:42.541Z,6.03
2017-07-25T04:51:10.255Z,6.37
2017-07-25T04:53:37.812Z,5.57
2017-07-25T04:56:05.328Z,5.53
2017-07-25T04:58:33.613Z,5.90
2017-07-25T05:01:01.928Z,6.43
2017-07-25T05:03:29.456Z,5.63
2017-07-25T05:05:57.878Z,5.83
2017-07-25T05:08:25.415Z,6.20
2017-07-25T05:10:52.937Z,6.13
2017-07-25T05:13:21.222Z,7.07
2017-07-25T05:15:49.642Z,6.10
2017-07-25T05:18:17.202Z,7.17
2017-07-25T05:20:44.762Z,7.37
2017-07-25T05:23:12.478Z,6.10
2017-07-25T05:25:40.808Z,5.83
2017-07-25T05:28:08.333Z,6.43
2017-07-25T05:30:36.638Z,5.90
2017-07-25T05:33:04.200Z,6.60
2017-07-25T05:35:31.725Z,5.50
2017-07-25T05:38:00.035Z,5.30
2017-07-25T05:40:27.613Z,5.63
2017-07-25T05:42:55.159Z,5.63
2017-07-25T05:45:22.715Z,4.90
2017-07-25T05:47:50.237Z,5.80
2017-07-25T05:50:18.553Z,5.60
2017-07-25T05:52:46.093Z,5.00
2017-07-25T05:55:13.624Z,4.83
2017-07-25T05:57:41.949Z,4.70
2017-07-25T06:00:09.548Z,4.37
2017-07-25T06:02:37.128Z,4.87
2017-07-25T06:05:05.446Z,4.20
2017-07-25T06:07:33.020Z,4.40
2017-07-25T06:10:00.565Z,4.90
2017-07-25T06:12:28.089Z,4.87
2017-07-25T06:14:56.506Z,4.70
2017-07-25T06:17:24.175Z,5.13
2017-07-25T06:19:51.723Z,5.33
2017-07-25T06:22:19.294Z,5.73
2017-07-25T06:24:46.945Z,5.80
2017-07-25T06:27:14.469Z,5.30
2017-07-25T06:29:42.896Z,6.60
2017-07-25T06:32:10.445Z,6.07
2017-07-25T06:34:37.961Z,5.90
2017-07-25T06:37:06.282Z,6.60
2017-07-25T06:39:33.812Z,7.47
2017-07-25T06:42:02.116Z,6.00
2017-07-25T06:44:29.657Z,7.73
2017-07-25T06:46:57.184Z,6.33
2017-07-25T06:49:24.712Z,6.23
2017-07-25T06:51:52.250Z,6.20
2017-07-25T06:54:19.768Z,5.70
2017-07-25T06:56:48.064Z,5.23
2017-07-25T06:59:15.664Z,6.40
2017-07-25T07:01:43.198Z,5.87
2017-07-25T07:04:10.717Z,6.03
2017-07-25T07:06:38.261Z,5.57
2017-07-25T07:09:05.798Z,5.60
2017-07-25T07:11:33.312Z,5.27
2017-07-25T07:14:01.622Z,5.50
2017-07-25T07:16:29.132Z,4.60
2017-07-25T07:18:56.662Z,5.00
2017-07-25T07:21:24.212Z,5.10
2017-07-25T07:23:51.758Z,4.90
2017-07-25T07:26:19.326Z,5.33
2017-07-25T07:28:46.862Z,5.00
2017-07-25T07:31:14.378Z,6.10
2017-07-25T07:33:41.901Z,5.40
2017-07-25T07:36:09.441Z,6.13
2017-07-25T07:38:36.973Z,5.40
2017-07-25T07:41:05.281Z,5.70
2017-07-25T07:43:32.821Z,6.00
2017-07-25T07:46:00.409Z,6.30
2017-07-25T07:48:27.976Z,6.00
2017-07-25T07:50:55.518Z,5.43
2017-07-25T07:53:23.041Z,5.40
2017-07-25T07:55:50.561Z,6.23
2017-07-25T07:58:18.136Z,5.20
2017-07-25T08:00:45.673Z,5.77
2017-07-25T08:03:13.192Z,5.13
2017-07-25T08:05:41.562Z,5.27
2017-07-25T08:08:09.854Z,5.27
2017-07-25T08:10:38.183Z,4.97
2017-07-25T08:13:05.735Z,4.70
2017-07-25T08:15:33.265Z,5.20
2017-07-25T08:18:00.790Z,5.23
2017-07-25T08:20:28.342Z,5.23
2017-07-25T08:22:55.918Z,4.90
2017-07-25T08:25:24.213Z,4.97
2017-07-25T08:27:51.757Z,5.57
2017-07-25T08:30:20.046Z,4.80
2017-07-25T08:32:47.566Z,3.60
2017-07-25T08:35:15.941Z,4.00
2017-07-25T08:37:43.467Z,3.57
2017-07-25T08:40:11.342Z,3.60
2017-07-25T08:42:38.877Z,3.80
2017-07-25T08:45:06.453Z,3.97
2017-07-25T08:47:35.357Z,4.40
2017-07-25T08:50:04.339Z,4.17
2017-07-25T08:52:33.205Z,4.30
2017-07-25T08:55:02.223Z,4.40
2017-07-25T08:57:31.126Z,4.30
2017-07-25T09:00:00.722Z,4.30
2017-07-25T09:02:29.912Z,4.03
2017-07-25T09:04:58.797Z,4.43
2017-07-25T09:07:27.660Z,4.40
2017-07-25T09:09:56.523Z,4.43
2017-07-25T09:12:26.227Z,4.40
2017-07-25T09:14:55.194Z,4.00
2017-07-25T09:17:24.188Z,5.67
2017-07-25T09:19:53.103Z,4.67
2017-07-25T09:22:21.981Z,5.77
2017-07-25T09:24:50.875Z,5.10
2017-07-25T09:27:19.863Z,3.63
2017-07-25T09:29:48.742Z,4.57
2017-07-25T09:32:17.661Z,4.20
2017-07-25T09:34:46.545Z,4.10
2017-07-25T09:37:15.413Z,5.63
2017-07-25T09:39:44.273Z,4.63
2017-07-25T09:42:13.167Z,4.27
2017-07-25T09:44:42.033Z,5.03
2017-07-25T09:47:11.013Z,4.83
2017-07-25T09:49:39.895Z,4.57
2017-07-25T09:52:08.871Z,5.00
2017-07-25T09:54:37.771Z,5.00
2017-07-25T09:57:06.750Z,5.57
2017-07-25T09:59:35.618Z,5.00
2017-07-25T10:02:04.484Z,5.03
2017-07-25T10:04:33.448Z,4.73
2017-07-25T10:07:02.418Z,4.57
2017-07-25T10:09:31.324Z,5.30
2017-07-25T10:12:00.403Z,5.40
2017-07-25T10:14:29.270Z,5.30
2017-07-25T10:16:58.146Z,5.00
2017-07-25T10:19:27.034Z,5.27
2017-07-25T10:21:55.993Z,5.00
2017-07-25T10:24:24.865Z,5.20
2017-07-25T10:26:53.853Z,4.80
2017-07-25T10:29:22.847Z,4.40
2017-07-25T10:31:51.753Z,3.50
2017-07-25T10:34:20.638Z,4.00
2017-07-25T10:36:49.537Z,4.50
2017-07-25T10:39:18.635Z,3.47
2017-07-25T10:41:47.525Z,3.43
2017-07-25T10:44:16.397Z,3.47
2017-07-25T10:46:45.390Z,4.33
2017-07-25T10:49:14.285Z,4.17
2017-07-25T10:51:43.148Z,3.87
2017-07-25T10:54:12.013Z,3.20
2017-07-25T10:56:40.893Z,2.80
2017-07-25T10:59:09.762Z,2.53
2017-07-25T11:01:38.632Z,3.43
2017-07-25T11:04:07.532Z,2.67
2017-07-25T11:06:36.428Z,4.27
2017-07-25T11:09:05.410Z,4.07
2017-07-25T11:11:34.296Z,4.17
2017-07-25T11:14:03.208Z,4.27
2017-07-25T11:16:32.078Z,3.00
2017-07-25T11:19:00.988Z,4.20
2017-07-25T11:21:29.969Z,5.23
2017-07-25T11:23:59.673Z,4.80
2017-07-25T11:26:28.562Z,5.10
2017-07-25T11:28:57.564Z,4.37
2017-07-25T11:31:26.433Z,4.27
2017-07-25T11:33:55.328Z,4.17
2017-07-25T11:36:24.285Z,3.70
2017-07-25T11:38:53.326Z,3.83
2017-07-25T11:41:20.993Z,3.40
2017-07-25T11:43:48.517Z,3.83
2017-07-25T11:46:16.805Z,3.40
2017-07-25T11:48:44.397Z,2.87
2017-07-25T11:51:12.773Z,3.40
2017-07-25T11:53:41.668Z,2.80
2017-07-25T11:56:09.202Z,3.30
2017-07-25T11:58:36.721Z,2.47
2017-07-25T12:01:05.769Z,2.57
2017-07-25T12:03:34.649Z,2.30
2017-07-25T12:06:02.223Z,2.40
2017-07-25T12:08:30.429Z,1.97
2017-07-25T12:10:57.971Z,2.20
2017-07-25T12:13:25.518Z,2.50
2017-07-25T12:15:53.032Z,2.83
2017-07-25T12:18:21.917Z,3.00
2017-07-25T12:20:56.780Z,2.93
2017-07-25T12:23:24.322Z,2.63
2017-07-25T12:25:53.190Z,3.10
2017-07-25T12:28:22.139Z,2.87
2017-07-25T12:30:49.698Z,3.57
2017-07-25T12:33:18.564Z,2.50
2017-07-25T12:35:47.498Z,2.57
2017-07-25T12:38:16.476Z,2.50
2017-07-25T12:40:45.350Z,1.93
2017-07-25T12:43:12.930Z,2.03
2017-07-25T12:45:40.466Z,1.60
2017-07-25T12:48:09.393Z,1.67
2017-07-25T12:50:38.268Z,2.30
2017-07-25T12:53:07.153Z,1.97
2017-07-25T12:55:36.021Z,2.23
2017-07-25T12:58:05.049Z,2.40
2017-07-25T13:00:48.987Z,2.77
2017-07-25T13:03:28.736Z,2.90
2017-07-25T13:05:57.630Z,2.20
2017-07-25T13:08:25.285Z,2.00
2017-07-25T13:10:54.160Z,2.90
2017-07-25T13:13:23.049Z,2.87
2017-07-25T13:15:51.841Z,2.90
2017-07-25T13:18:19.416Z,3.00
2017-07-25T13:20:46.963Z,2.67
2017-07-25T13:23:14.542Z,2.70
2017-07-25T13:25:42.060Z,2.37
2017-07-25T13:28:10.364Z,2.10
2017-07-25T13:30:37.878Z,2.50
2017-07-25T13:33:05.394Z,2.80
2017-07-25T13:35:32.934Z,3.10
2017-07-25T13:38:00.454Z,3.37
2017-07-25T13:40:27.984Z,3.07
2017-07-25T13:42:55.628Z,2.90
2017-07-25T13:45:23.194Z,2.70
2017-07-25T13:47:50.765Z,3.47
2017-07-25T13:50:18.311Z,2.80
2017-07-25T13:52:45.869Z,3.63
2017-07-25T13:55:13.393Z,2.77
2017-07-25T13:57:41.700Z,3.53
2017-07-25T14:00:09.218Z,2.60
2017-07-25T14:02:37.505Z,3.07
2017-07-25T14:05:05.093Z,2.70
2017-07-25T14:07:32.763Z,2.70
2017-07-25T14:10:00.277Z,3.00
2017-07-25T14:12:28.691Z,2.73
2017-07-25T14:14:56.263Z,3.00
2017-07-25T14:17:23.789Z,3.30
2017-07-25T14:19:52.200Z,3.00
2017-07-25T14:22:19.862Z,2.60
2017-07-25T14:24:47.427Z,2.80
2017-07-25T14:27:14.962Z,2.57
2017-07-25T14:29:42.546Z,2.67
2017-07-25T14:32:10.106Z,2.20
2017-07-25T14:34:37.674Z,2.30
2017-07-25T14:37:05.597Z,4.20
2017-07-25T14:39:33.897Z,1.97
2017-07-25T14:42:01.442Z,2.73
2017-07-25T14:44:29.026Z,4.63
2017-07-25T14:46:56.558Z,1.60
2017-07-25T14:49:24.149Z,1.40
2017-07-25T14:51:51.679Z,0.93
2017-07-25T14:54:19.203Z,0.80
2017-07-25T14:56:46.826Z,0.90
2017-07-25T14:59:14.341Z,0.70
2017-07-25T15:01:42.762Z,0.80
2017-07-25T15:04:10.426Z,0.70
2017-07-25T15:06:37.985Z,0.53
2017-07-25T15:09:05.546Z,0.60
2017-07-25T15:11:33.090Z,0.60
2017-07-25T15:14:00.612Z,0.60
2017-07-25T15:16:28.140Z,0.70
2017-07-25T15:18:56.605Z,0.70
2017-07-25T15:21:24.166Z,0.90
2017-07-25T15:23:51.683Z,1.43
2017-07-25T15:26:20.642Z,0.90
2017-07-25T15:28:48.275Z,1.17
2017-07-25T15:31:15.838Z,0.80
2017-07-25T15:33:43.395Z,0.60
2017-07-25T15:36:10.954Z,0.60
2017-07-25T15:38:38.498Z,0.83
2017-07-25T15:41:06.060Z,0.60
2017-07-25T15:43:33.585Z,0.50
2017-07-25T15:46:01.114Z,0.77
2017-07-25T15:48:28.853Z,1.00
2017-07-25T15:50:56.377Z,1.13
2017-07-25T15:53:24.693Z,1.10
2017-07-25T15:55:52.254Z,1.20
2017-07-25T15:58:19.773Z,1.83
2017-07-25T16:00:48.057Z,1.17
2017-07-25T16:03:15.653Z,1.17
2017-07-25T16:05:43.176Z,0.70
2017-07-25T16:08:10.867Z,0.80
2017-07-25T16:10:38.404Z,2.07
2017-07-25T16:13:05.930Z,0.97
2017-07-25T16:15:33.448Z,0.80
2017-07-25T16:18:00.985Z,0.67
2017-07-25T16:20:28.506Z,0.47
2017-07-25T16:22:56.031Z,0.47
2017-07-25T16:25:23.622Z,0.40
2017-07-25T16:27:51.249Z,1.00
2017-07-25T16:30:18.787Z,0.70
2017-07-25T16:32:46.340Z,0.50
2017-07-25T16:35:13.922Z,0.50
2017-07-25T16:37:41.472Z,0.60
2017-07-25T16:40:09.018Z,0.80
2017-07-25T16:42:36.563Z,0.47
2017-07-25T16:45:04.902Z,0.80
2017-07-25T16:47:32.546Z,0.80
2017-07-25T16:50:00.094Z,0.70
2017-07-25T16:52:27.781Z,0.70
2017-07-25T16:54:55.415Z,3.23
2017-07-25T16:57:22.974Z,1.00
2017-07-25T16:59:50.541Z,0.90
2017-07-25T17:02:18.104Z,0.60
2017-07-25T17:04:45.629Z,0.80
2017-07-25T17:07:13.233Z,1.23
2017-07-25T17:09:40.977Z,0.90
2017-07-25T17:12:08.538Z,0.67
2017-07-25T17:14:36.061Z,0.80
2017-07-25T17:17:04.373Z,1.40
2017-07-25T17:19:31.889Z,1.50
2017-07-25T17:22:00.214Z,1.03
2017-07-25T17:24:27.754Z,1.20
2017-07-25T17:26:55.329Z,0.80
2017-07-25T17:29:22.898Z,4.57
2017-07-25T17:31:50.551Z,9.53
2017-07-25T17:34:18.068Z,1.33
2017-07-25T17:36:46.374Z,1.43
2017-07-25T17:39:13.913Z,1.30
2017-07-25T17:41:42.237Z,1.50
2017-07-25T17:44:09.764Z,1.60
2017-07-25T17:46:37.326Z,1.60
2017-07-25T17:49:04.850Z,1.83
2017-07-25T17:51:33.142Z,1.80
2017-07-25T17:54:00.694Z,2.00
2017-07-25T17:56:29.014Z,2.10
2017-07-25T17:58:56.577Z,3.00
2017-07-25T18:01:24.110Z,3.97
2017-07-25T18:03:51.670Z,2.27
2017-07-25T18:06:19.253Z,2.43
2017-07-25T18:08:46.802Z,2.10
2017-07-25T18:11:14.333Z,1.90
2017-07-25T18:13:42.675Z,4.20
2017-07-25T18:16:10.217Z,1.93
2017-07-25T18:18:37.733Z,2.27
2017-07-25T18:21:05.273Z,2.13
2017-07-25T18:23:33.604Z,2.30
2017-07-25T18:26:01.125Z,2.00
2017-07-25T18:28:29.433Z,2.27
2017-07-25T18:30:56.979Z,2.70
2017-07-25T18:33:24.562Z,2.70
2017-07-25T18:35:52.085Z,2.67
2017-07-25T18:38:19.678Z,2.90
2017-07-25T18:40:47.206Z,2.50
2017-07-25T18:43:14.736Z,5.53
2017-07-25T18:45:42.274Z,2.60
2017-07-25T18:48:09.798Z,2.33
2017-07-25T18:50:37.372Z,2.87
2017-07-25T18:53:04.912Z,2.63
2017-07-25T18:55:32.434Z,2.70
2017-07-25T18:58:00.780Z,2.93
2017-07-25T19:00:29.238Z,2.60
2017-07-25T19:02:56.762Z,3.20
2017-07-25T19:05:25.176Z,2.77
2017-07-25T19:07:52.858Z,3.47
2017-07-25T19:10:20.383Z,3.67
2017-07-25T19:12:47.914Z,4.43
2017-07-25T19:15:16.245Z,4.10
2017-07-25T19:17:43.821Z,4.90
2017-07-25T19:20:11.361Z,5.27
2017-07-25T19:22:40.353Z,5.43
2017-07-25T19:25:09.233Z,6.17
2017-07-25T19:27:38.962Z,6.30
2017-07-25T19:30:07.909Z,5.63
2017-07-25T19:32:36.793Z,6.40
2017-07-25T19:35:05.743Z,6.50
2017-07-25T19:37:34.732Z,6.23
2017-07-25T19:40:03.608Z,6.60
2017-07-25T19:42:32.473Z,6.50
2017-07-25T19:45:01.379Z,6.53
2017-07-25T19:47:30.250Z,7.80
2017-07-25T19:49:59.188Z,9.00
2017-07-25T19:52:28.084Z,7.70
2017-07-25T19:54:56.954Z,6.63
2017-07-25T19:57:25.864Z,6.47
2017-07-25T19:59:54.764Z,6.80
2017-07-25T20:02:23.644Z,6.67
2017-07-25T20:04:52.540Z,6.77
2017-07-25T20:07:21.518Z,6.03
2017-07-25T20:09:50.375Z,5.83
2017-07-25T20:12:19.853Z,6.10
2017-07-25T20:14:48.753Z,6.20
2017-07-25T20:17:17.616Z,5.53
2017-07-25T20:19:46.589Z,6.57
2017-07-25T20:22:15.580Z,5.73
2017-07-25T20:24:44.441Z,6.03
2017-07-25T20:27:13.306Z,6.10
2017-07-25T20:29:42.193Z,5.30
2017-07-25T20:32:11.141Z,6.47
2017-07-25T20:34:40.112Z,5.43
2017-07-25T20:37:09.005Z,6.47
2017-07-25T20:39:37.909Z,6.23
2017-07-25T20:42:06.781Z,14.67
2017-07-25T20:44:35.697Z,28.60
2017-07-25T20:47:04.568Z,6.90
2017-07-25T20:49:33.434Z,5.50
2017-07-25T20:52:02.453Z,5.30
2017-07-25T20:54:31.341Z,4.60
2017-07-25T20:57:00.205Z,5.00
2017-07-25T20:59:29.223Z,4.40
2017-07-25T21:01:58.092Z,4.93
2017-07-25T21:04:27.016Z,4.13
2017-07-25T21:06:56.032Z,5.23
2017-07-25T21:09:24.906Z,5.70
2017-07-25T21:11:53.792Z,5.30
2017-07-25T21:14:22.789Z,5.67
2017-07-25T21:16:51.698Z,5.20
2017-07-25T21:19:20.570Z,5.80
2017-07-25T21:21:49.567Z,6.27
2017-07-25T21:24:18.433Z,6.37
2017-07-25T21:26:47.344Z,6.20
2017-07-25T21:29:16.342Z,6.70
2017-07-25T21:31:45.314Z,6.63
2017-07-25T21:34:14.311Z,6.30
2017-07-25T21:36:43.205Z,6.97
2017-07-25T21:39:12.077Z,8.10
2017-07-25T21:41:40.936Z,7.30
2017-07-25T21:44:09.824Z,6.83
2017-07-25T21:46:38.699Z,6.50
2017-07-25T21:49:07.566Z,7.47
2017-07-25T21:51:36.748Z,7.40
2017-07-25T21:54:05.616Z,7.10
2017-07-25T21:56:34.484Z,6.97
2017-07-25T21:59:04.034Z,6.30
2017-07-25T22:01:38.597Z,6.80
2017-07-25T22:04:13.496Z,5.83
2017-07-25T22:06:42.392Z,6.30
2017-07-25T22:09:11.374Z,6.20
2017-07-25T22:11:40.368Z,5.37
2017-07-25T22:14:09.224Z,5.40
2017-07-25T22:16:38.182Z,5.20
2017-07-25T22:19:07.084Z,5.73
2017-07-25T22:21:36.053Z,4.80
2017-07-25T22:24:04.941Z,5.43
2017-07-25T22:26:33.915Z,4.93
2017-07-25T22:29:02.785Z,4.50
2017-07-25T22:31:31.799Z,4.80
2017-07-25T22:34:00.713Z,5.73
2017-07-25T22:36:29.705Z,4.80
2017-07-25T22:38:58.569Z,5.20
2017-07-25T22:41:27.457Z,5.33
2017-07-25T22:43:56.325Z,5.63
2017-07-25T22:46:25.185Z,5.73
2017-07-25T22:48:54.160Z,6.30
2017-07-25T22:51:23.040Z,5.70
2017-07-25T22:53:51.904Z,5.20
2017-07-25T22:56:20.820Z,5.80
2017-07-25T22:58:49.696Z,5.63
2017-07-25T23:01:18.564Z,6.53
2017-07-25T23:03:47.470Z,6.40
2017-07-25T23:06:16.404Z,5.87
2017-07-25T23:08:45.366Z,6.20
2017-07-25T23:11:14.247Z,6.70
2017-07-25T23:13:43.163Z,6.70
2017-07-25T23:16:12.052Z,6.63
2017-07-25T23:18:41.046Z,6.80
2017-07-25T23:21:10.026Z,6.90
2017-07-25T23:23:38.899Z,7.07
2017-07-25T23:26:07.911Z,6.50
2017-07-25T23:28:36.903Z,6.10
2017-07-25T23:31:05.770Z,6.83
2017-07-25T23:33:34.656Z,6.13
2017-07-25T23:36:03.532Z,6.90
2017-07-25T23:38:32.393Z,6.47
2017-07-25T23:41:01.369Z,6.20
2017-07-25T23:43:30.237Z,5.07
2017-07-25T23:45:59.154Z,5.60
2017-07-25T23:48:28.037Z,5.13
2017-07-25T23:50:57.023Z,6.00
2017-07-25T23:53:26.017Z,5.37
2017-07-25T23:55:54.901Z,5.10
2017-07-25T23:58:23.757Z,5.80
